sensor_id;sensor_type;location;lat;lon;timestamp;P1;durP1;ratioP1;P2;durP2;ratioP2
68614;SDS011;55593;51.994;5.882;2022-07-23T00:00:08;6.40;;;2.47;;
68614;SDS011;55593;51.994;5.882;2022-07-23T00:02:37;6.47;;;2.63;;
68614;SDS011;55593;51.994;5.882;2022-07-23T00:05:07;5.28;;;2.60;;
68614;SDS011;55593;51.994;5.882;2022-07-23T00:07:36;6.20;;;2.85;;
68614;SDS011;55593;51.994;5.882;2022-07-23T00:10:06;5.93;;;2.92;;
68614;SDS011;55593;51.994;5.882;2022-07-23T00:12:39;8.15;;;3.03;;
68614;SDS011;55593;51.994;5.882;2022-07-23T00:15:09;6.57;;;3.15;;
68614;SDS011;55593;51.994;5.882;2022-07-23T00:17:38;4.72;;;3.10;;
68614;SDS011;55593;51.994;5.882;2022-07-23T00:20:07;5.22;;;2.80;;
68614;SDS011;55593;51.994;5.882;2022-07-23T00:22:37;10.80;;;2.80;;
68614;SDS011;55593;51.994;5.882;2022-07-23T00:25:17;7.45;;;3.20;;
68614;SDS011;55593;51.994;5.882;2022-07-23T00:27:46;6.72;;;2.95;;
68614;SDS011;55593;51.994;5.882;2022-07-23T00:30:15;7.40;;;3.35;;
68614;SDS011;55593;51.994;5.882;2022-07-23T00:32:45;6.35;;;3.00;;
68614;SDS011;55593;51.994;5.882;2022-07-23T00:35:15;8.82;;;2.92;;
68614;SDS011;55593;51.994;5.882;2022-07-23T00:37:44;7.05;;;3.00;;
68614;SDS011;55593;51.994;5.882;2022-07-23T00:40:14;6.93;;;3.10;;
68614;SDS011;55593;51.994;5.882;2022-07-23T00:42:45;6.72;;;3.08;;
68614;SDS011;55593;51.994;5.882;2022-07-23T00:45:15;11.57;;;3.45;;
68614;SDS011;55593;51.994;5.882;2022-07-23T00:47:44;6.43;;;3.38;;
68614;SDS011;55593;51.994;5.882;2022-07-23T00:50:13;7.10;;;3.33;;
68614;SDS011;55593;51.994;5.882;2022-07-23T00:52:42;11.30;;;2.92;;
68614;SDS011;55593;51.994;5.882;2022-07-23T00:55:12;6.40;;;3.92;;
68614;SDS011;55593;51.994;5.882;2022-07-23T00:57:44;7.82;;;4.00;;
68614;SDS011;55593;51.994;5.882;2022-07-23T01:00:13;7.93;;;3.50;;
68614;SDS011;55593;51.994;5.882;2022-07-23T01:02:43;7.00;;;3.90;;
68614;SDS011;55593;51.994;5.882;2022-07-23T01:05:12;7.88;;;3.60;;
68614;SDS011;55593;51.994;5.882;2022-07-23T01:07:41;5.57;;;3.72;;
68614;SDS011;55593;51.994;5.882;2022-07-23T01:10:11;13.15;;;4.28;;
68614;SDS011;55593;51.994;5.882;2022-07-23T01:12:55;8.10;;;3.35;;
68614;SDS011;55593;51.994;5.882;2022-07-23T01:15:24;8.27;;;4.05;;
68614;SDS011;55593;51.994;5.882;2022-07-23T01:17:53;7.65;;;3.22;;
68614;SDS011;55593;51.994;5.882;2022-07-23T01:20:23;7.93;;;3.72;;
68614;SDS011;55593;51.994;5.882;2022-07-23T01:22:55;7.85;;;3.80;;
68614;SDS011;55593;51.994;5.882;2022-07-23T01:25:24;6.53;;;3.95;;
68614;SDS011;55593;51.994;5.882;2022-07-23T01:27:57;10.65;;;4.00;;
68614;SDS011;55593;51.994;5.882;2022-07-23T01:30:26;5.78;;;3.53;;
68614;SDS011;55593;51.994;5.882;2022-07-23T01:32:57;8.10;;;3.90;;
68614;SDS011;55593;51.994;5.882;2022-07-23T01:35:26;7.18;;;4.22;;
68614;SDS011;55593;51.994;5.882;2022-07-23T01:38:02;10.90;;;4.38;;
68614;SDS011;55593;51.994;5.882;2022-07-23T01:40:32;9.23;;;4.13;;
68614;SDS011;55593;51.994;5.882;2022-07-23T01:43:01;6.72;;;4.00;;
68614;SDS011;55593;51.994;5.882;2022-07-23T01:45:32;6.70;;;4.07;;
68614;SDS011;55593;51.994;5.882;2022-07-23T01:48:01;6.97;;;4.00;;
68614;SDS011;55593;51.994;5.882;2022-07-23T01:50:31;5.80;;;4.03;;
68614;SDS011;55593;51.994;5.882;2022-07-23T01:53:14;6.60;;;3.70;;
68614;SDS011;55593;51.994;5.882;2022-07-23T01:55:43;7.80;;;3.50;;
68614;SDS011;55593;51.994;5.882;2022-07-23T01:58:12;10.30;;;3.83;;
68614;SDS011;55593;51.994;5.882;2022-07-23T02:00:42;8.90;;;3.90;;
68614;SDS011;55593;51.994;5.882;2022-07-23T02:03:11;13.18;;;4.00;;
68614;SDS011;55593;51.994;5.882;2022-07-23T02:05:40;5.63;;;3.50;;
68614;SDS011;55593;51.994;5.882;2022-07-23T02:08:09;9.38;;;4.40;;
68614;SDS011;55593;51.994;5.882;2022-07-23T02:10:41;6.90;;;3.63;;
68614;SDS011;55593;51.994;5.882;2022-07-23T02:13:10;8.77;;;4.28;;
68614;SDS011;55593;51.994;5.882;2022-07-23T02:15:39;7.85;;;3.75;;
68614;SDS011;55593;51.994;5.882;2022-07-23T02:18:08;7.75;;;3.88;;
68614;SDS011;55593;51.994;5.882;2022-07-23T02:20:37;6.85;;;3.30;;
68614;SDS011;55593;51.994;5.882;2022-07-23T02:23:07;8.25;;;3.92;;
68614;SDS011;55593;51.994;5.882;2022-07-23T02:25:37;6.30;;;3.72;;
68614;SDS011;55593;51.994;5.882;2022-07-23T02:28:09;7.60;;;3.70;;
68614;SDS011;55593;51.994;5.882;2022-07-23T02:30:41;12.35;;;3.80;;
68614;SDS011;55593;51.994;5.882;2022-07-23T02:33:10;8.73;;;3.75;;
68614;SDS011;55593;51.994;5.882;2022-07-23T02:35:40;5.70;;;3.50;;
68614;SDS011;55593;51.994;5.882;2022-07-23T02:38:10;6.85;;;3.63;;
68614;SDS011;55593;51.994;5.882;2022-07-23T02:40:39;6.65;;;3.90;;
68614;SDS011;55593;51.994;5.882;2022-07-23T02:43:11;5.22;;;3.28;;
68614;SDS011;55593;51.994;5.882;2022-07-23T02:45:40;9.80;;;3.25;;
68614;SDS011;55593;51.994;5.882;2022-07-23T02:48:09;5.78;;;3.65;;
68614;SDS011;55593;51.994;5.882;2022-07-23T02:50:42;5.60;;;3.17;;
68614;SDS011;55593;51.994;5.882;2022-07-23T02:53:14;6.38;;;3.53;;
68614;SDS011;55593;51.994;5.882;2022-07-23T02:55:43;5.63;;;3.10;;
68614;SDS011;55593;51.994;5.882;2022-07-23T02:58:15;7.50;;;2.92;;
68614;SDS011;55593;51.994;5.882;2022-07-23T03:00:44;5.57;;;3.10;;
68614;SDS011;55593;51.994;5.882;2022-07-23T03:03:13;6.03;;;2.97;;
68614;SDS011;55593;51.994;5.882;2022-07-23T03:05:42;8.38;;;2.80;;
68614;SDS011;55593;51.994;5.882;2022-07-23T03:08:11;8.90;;;2.92;;
68614;SDS011;55593;51.994;5.882;2022-07-23T03:10:44;6.05;;;2.72;;
68614;SDS011;55593;51.994;5.882;2022-07-23T03:13:16;6.32;;;2.80;;
68614;SDS011;55593;51.994;5.882;2022-07-23T03:15:45;8.10;;;2.60;;
68614;SDS011;55593;51.994;5.882;2022-07-23T03:18:14;11.52;;;2.90;;
68614;SDS011;55593;51.994;5.882;2022-07-23T03:20:43;4.72;;;2.70;;
68614;SDS011;55593;51.994;5.882;2022-07-23T03:23:12;7.43;;;2.90;;
68614;SDS011;55593;51.994;5.882;2022-07-23T03:25:41;6.13;;;2.90;;
68614;SDS011;55593;51.994;5.882;2022-07-23T03:28:12;5.75;;;2.83;;
68614;SDS011;55593;51.994;5.882;2022-07-23T03:30:44;6.38;;;3.47;;
68614;SDS011;55593;51.994;5.882;2022-07-23T03:33:14;7.35;;;3.20;;
68614;SDS011;55593;51.994;5.882;2022-07-23T03:35:46;6.30;;;3.00;;
68614;SDS011;55593;51.994;5.882;2022-07-23T03:38:25;6.18;;;2.70;;
68614;SDS011;55593;51.994;5.882;2022-07-23T03:40:54;7.70;;;3.25;;
68614;SDS011;55593;51.994;5.882;2022-07-23T03:43:23;6.80;;;3.65;;
68614;SDS011;55593;51.994;5.882;2022-07-23T03:45:55;8.40;;;3.28;;
68614;SDS011;55593;51.994;5.882;2022-07-23T03:48:24;6.72;;;3.13;;
68614;SDS011;55593;51.994;5.882;2022-07-23T03:50:53;4.30;;;2.85;;
68614;SDS011;55593;51.994;5.882;2022-07-23T03:53:22;5.78;;;2.92;;
68614;SDS011;55593;51.994;5.882;2022-07-23T03:55:51;5.38;;;3.20;;
68614;SDS011;55593;51.994;5.882;2022-07-23T03:58:21;8.57;;;3.60;;
68614;SDS011;55593;51.994;5.882;2022-07-23T04:00:50;8.75;;;3.63;;
68614;SDS011;55593;51.994;5.882;2022-07-23T04:03:22;6.03;;;3.42;;
68614;SDS011;55593;51.994;5.882;2022-07-23T04:05:52;9.50;;;3.15;;
68614;SDS011;55593;51.994;5.882;2022-07-23T04:08:21;5.78;;;3.28;;
68614;SDS011;55593;51.994;5.882;2022-07-23T04:10:51;7.10;;;3.15;;
68614;SDS011;55593;51.994;5.882;2022-07-23T04:13:22;7.45;;;3.45;;
68614;SDS011;55593;51.994;5.882;2022-07-23T04:15:52;8.95;;;3.40;;
68614;SDS011;55593;51.994;5.882;2022-07-23T04:18:23;7.78;;;3.58;;
68614;SDS011;55593;51.994;5.882;2022-07-23T04:21:00;8.38;;;3.72;;
68614;SDS011;55593;51.994;5.882;2022-07-23T04:23:29;12.13;;;4.10;;
68614;SDS011;55593;51.994;5.882;2022-07-23T04:25:58;11.43;;;4.22;;
68614;SDS011;55593;51.994;5.882;2022-07-23T04:28:27;7.20;;;3.78;;
68614;SDS011;55593;51.994;5.882;2022-07-23T04:30:57;6.40;;;3.55;;
68614;SDS011;55593;51.994;5.882;2022-07-23T04:33:29;8.07;;;3.85;;
68614;SDS011;55593;51.994;5.882;2022-07-23T04:36:01;12.05;;;4.13;;
68614;SDS011;55593;51.994;5.882;2022-07-23T04:38:31;8.23;;;3.75;;
68614;SDS011;55593;51.994;5.882;2022-07-23T04:41:02;8.55;;;3.83;;
68614;SDS011;55593;51.994;5.882;2022-07-23T04:43:32;6.45;;;3.95;;
68614;SDS011;55593;51.994;5.882;2022-07-23T04:46:01;6.75;;;3.78;;
68614;SDS011;55593;51.994;5.882;2022-07-23T04:48:39;6.10;;;3.50;;
68614;SDS011;55593;51.994;5.882;2022-07-23T04:51:09;6.78;;;3.90;;
68614;SDS011;55593;51.994;5.882;2022-07-23T04:53:39;6.68;;;3.80;;
68614;SDS011;55593;51.994;5.882;2022-07-23T04:56:08;6.93;;;3.50;;
68614;SDS011;55593;51.994;5.882;2022-07-23T04:58:37;9.85;;;3.85;;
68614;SDS011;55593;51.994;5.882;2022-07-23T05:01:07;7.53;;;3.70;;
68614;SDS011;55593;51.994;5.882;2022-07-23T05:03:39;5.65;;;3.13;;
68614;SDS011;55593;51.994;5.882;2022-07-23T05:06:09;7.97;;;3.38;;
68614;SDS011;55593;51.994;5.882;2022-07-23T05:08:38;11.32;;;3.63;;
68614;SDS011;55593;51.994;5.882;2022-07-23T05:11:09;7.90;;;3.67;;
68614;SDS011;55593;51.994;5.882;2022-07-23T05:13:38;6.68;;;3.20;;
68614;SDS011;55593;51.994;5.882;2022-07-23T05:16:08;6.22;;;3.47;;
68614;SDS011;55593;51.994;5.882;2022-07-23T05:18:40;9.15;;;3.13;;
68614;SDS011;55593;51.994;5.882;2022-07-23T05:21:09;10.55;;;4.30;;
68614;SDS011;55593;51.994;5.882;2022-07-23T05:23:38;5.90;;;2.90;;
68614;SDS011;55593;51.994;5.882;2022-07-23T05:26:08;5.57;;;3.05;;
68614;SDS011;55593;51.994;5.882;2022-07-23T05:28:37;7.47;;;3.25;;
68614;SDS011;55593;51.994;5.882;2022-07-23T05:31:08;7.72;;;2.78;;
68614;SDS011;55593;51.994;5.882;2022-07-23T05:33:39;8.38;;;2.83;;
68614;SDS011;55593;51.994;5.882;2022-07-23T05:36:09;4.75;;;2.63;;
68614;SDS011;55593;51.994;5.882;2022-07-23T05:38:51;7.70;;;2.88;;
68614;SDS011;55593;51.994;5.882;2022-07-23T05:41:20;7.75;;;2.60;;
68614;SDS011;55593;51.994;5.882;2022-07-23T05:43:49;9.90;;;2.15;;
68614;SDS011;55593;51.994;5.882;2022-07-23T05:46:19;7.50;;;3.38;;
68614;SDS011;55593;51.994;5.882;2022-07-23T05:48:55;9.48;;;2.83;;
68614;SDS011;55593;51.994;5.882;2022-07-23T05:51:56;11.50;;;3.03;;
68614;SDS011;55593;51.994;5.882;2022-07-23T05:54:35;9.40;;;3.05;;
68614;SDS011;55593;51.994;5.882;2022-07-23T05:57:05;5.00;;;2.40;;
68614;SDS011;55593;51.994;5.882;2022-07-23T05:59:34;4.90;;;2.70;;
68614;SDS011;55593;51.994;5.882;2022-07-23T06:02:03;5.25;;;2.00;;
68614;SDS011;55593;51.994;5.882;2022-07-23T06:04:36;12.90;;;2.88;;
68614;SDS011;55593;51.994;5.882;2022-07-23T06:07:19;9.82;;;2.13;;
68614;SDS011;55593;51.994;5.882;2022-07-23T06:09:49;6.38;;;2.20;;
68614;SDS011;55593;51.994;5.882;2022-07-23T06:12:18;8.02;;;2.10;;
68614;SDS011;55593;51.994;5.882;2022-07-23T06:14:47;5.70;;;1.83;;
68614;SDS011;55593;51.994;5.882;2022-07-23T06:17:18;6.55;;;2.08;;
68614;SDS011;55593;51.994;5.882;2022-07-23T06:19:49;5.35;;;2.03;;
68614;SDS011;55593;51.994;5.882;2022-07-23T06:22:19;7.05;;;2.50;;
68614;SDS011;55593;51.994;5.882;2022-07-23T06:24:48;5.63;;;2.33;;
68614;SDS011;55593;51.994;5.882;2022-07-23T06:27:20;3.08;;;1.70;;
68614;SDS011;55593;51.994;5.882;2022-07-23T06:29:50;6.63;;;2.38;;
68614;SDS011;55593;51.994;5.882;2022-07-23T06:32:19;7.28;;;1.98;;
68614;SDS011;55593;51.994;5.882;2022-07-23T06:34:51;4.47;;;1.70;;
68614;SDS011;55593;51.994;5.882;2022-07-23T06:37:20;5.03;;;2.30;;
68614;SDS011;55593;51.994;5.882;2022-07-23T06:39:50;7.20;;;2.22;;
68614;SDS011;55593;51.994;5.882;2022-07-23T06:42:19;11.70;;;2.75;;
68614;SDS011;55593;51.994;5.882;2022-07-23T06:44:56;7.85;;;2.85;;
68614;SDS011;55593;51.994;5.882;2022-07-23T06:47:25;10.25;;;3.38;;
68614;SDS011;55593;51.994;5.882;2022-07-23T06:49:57;8.82;;;2.67;;
68614;SDS011;55593;51.994;5.882;2022-07-23T06:52:26;8.30;;;2.60;;
68614;SDS011;55593;51.994;5.882;2022-07-23T06:54:55;7.20;;;2.85;;
68614;SDS011;55593;51.994;5.882;2022-07-23T06:57:24;5.47;;;2.70;;
68614;SDS011;55593;51.994;5.882;2022-07-23T06:59:54;6.65;;;2.70;;
68614;SDS011;55593;51.994;5.882;2022-07-23T07:02:23;7.18;;;2.42;;
68614;SDS011;55593;51.994;5.882;2022-07-23T07:04:54;7.13;;;3.20;;
68614;SDS011;55593;51.994;5.882;2022-07-23T07:07:25;11.20;;;3.03;;
68614;SDS011;55593;51.994;5.882;2022-07-23T07:09:55;8.68;;;2.83;;
68614;SDS011;55593;51.994;5.882;2022-07-23T07:12:24;8.43;;;2.85;;
68614;SDS011;55593;51.994;5.882;2022-07-23T07:14:53;7.40;;;2.63;;
68614;SDS011;55593;51.994;5.882;2022-07-23T07:17:23;12.63;;;2.78;;
68614;SDS011;55593;51.994;5.882;2022-07-23T07:19:52;6.82;;;2.67;;
68614;SDS011;55593;51.994;5.882;2022-07-23T07:22:24;5.88;;;2.40;;
68614;SDS011;55593;51.994;5.882;2022-07-23T07:24:53;10.70;;;1.77;;
68614;SDS011;55593;51.994;5.882;2022-07-23T07:27:22;4.22;;;1.92;;
68614;SDS011;55593;51.994;5.882;2022-07-23T07:29:51;9.52;;;3.08;;
68614;SDS011;55593;51.994;5.882;2022-07-23T07:32:20;6.25;;;2.28;;
68614;SDS011;55593;51.994;5.882;2022-07-23T07:34:49;6.60;;;2.80;;
68614;SDS011;55593;51.994;5.882;2022-07-23T07:37:18;5.97;;;2.00;;
68614;SDS011;55593;51.994;5.882;2022-07-23T07:39:50;8.27;;;2.75;;
68614;SDS011;55593;51.994;5.882;2022-07-23T07:42:19;5.97;;;2.75;;
68614;SDS011;55593;51.994;5.882;2022-07-23T07:44:48;5.78;;;2.53;;
68614;SDS011;55593;51.994;5.882;2022-07-23T07:47:17;11.95;;;2.75;;
68614;SDS011;55593;51.994;5.882;2022-07-23T07:49:46;3.63;;;2.20;;
68614;SDS011;55593;51.994;5.882;2022-07-23T07:52:15;4.93;;;2.05;;
68614;SDS011;55593;51.994;5.882;2022-07-23T07:54:44;6.53;;;2.42;;
68614;SDS011;55593;51.994;5.882;2022-07-23T07:57:16;6.35;;;2.70;;
68614;SDS011;55593;51.994;5.882;2022-07-23T07:59:45;7.20;;;2.90;;
68614;SDS011;55593;51.994;5.882;2022-07-23T08:02:14;5.40;;;2.70;;
68614;SDS011;55593;51.994;5.882;2022-07-23T08:04:43;3.90;;;2.10;;
68614;SDS011;55593;51.994;5.882;2022-07-23T08:07:14;7.78;;;2.60;;
68614;SDS011;55593;51.994;5.882;2022-07-23T08:09:43;8.82;;;2.92;;
68614;SDS011;55593;51.994;5.882;2022-07-23T08:12:12;6.13;;;2.50;;
68614;SDS011;55593;51.994;5.882;2022-07-23T08:14:44;7.60;;;3.58;;
68614;SDS011;55593;51.994;5.882;2022-07-23T08:17:14;6.00;;;2.58;;
68614;SDS011;55593;51.994;5.882;2022-07-23T08:19:45;6.95;;;2.70;;
68614;SDS011;55593;51.994;5.882;2022-07-23T08:22:15;4.03;;;2.47;;
68614;SDS011;55593;51.994;5.882;2022-07-23T08:24:44;5.68;;;2.17;;
68614;SDS011;55593;51.994;5.882;2022-07-23T08:27:13;4.75;;;2.60;;
68614;SDS011;55593;51.994;5.882;2022-07-23T08:29:44;8.02;;;2.40;;
68614;SDS011;55593;51.994;5.882;2022-07-23T08:32:14;4.63;;;2.30;;
68614;SDS011;55593;51.994;5.882;2022-07-23T08:34:43;7.95;;;2.80;;
68614;SDS011;55593;51.994;5.882;2022-07-23T08:37:12;5.57;;;2.75;;
68614;SDS011;55593;51.994;5.882;2022-07-23T08:39:41;6.15;;;2.40;;
68614;SDS011;55593;51.994;5.882;2022-07-23T08:42:10;6.47;;;2.50;;
68614;SDS011;55593;51.994;5.882;2022-07-23T08:44:40;8.45;;;3.60;;
68614;SDS011;55593;51.994;5.882;2022-07-23T08:47:13;4.25;;;2.38;;
68614;SDS011;55593;51.994;5.882;2022-07-23T08:49:43;5.22;;;2.22;;
68614;SDS011;55593;51.994;5.882;2022-07-23T08:52:13;5.88;;;2.13;;
68614;SDS011;55593;51.994;5.882;2022-07-23T08:54:43;6.40;;;2.10;;
68614;SDS011;55593;51.994;5.882;2022-07-23T08:57:12;6.60;;;2.40;;
68614;SDS011;55593;51.994;5.882;2022-07-23T08:59:41;4.68;;;2.00;;
68614;SDS011;55593;51.994;5.882;2022-07-23T09:02:14;9.48;;;2.28;;
68614;SDS011;55593;51.994;5.882;2022-07-23T09:04:43;5.72;;;2.63;;
68614;SDS011;55593;51.994;5.882;2022-07-23T09:07:12;4.45;;;2.28;;
68614;SDS011;55593;51.994;5.882;2022-07-23T09:09:41;6.00;;;2.58;;
68614;SDS011;55593;51.994;5.882;2022-07-23T09:12:10;8.95;;;2.97;;
68614;SDS011;55593;51.994;5.882;2022-07-23T09:14:41;6.38;;;2.40;;
68614;SDS011;55593;51.994;5.882;2022-07-23T09:17:16;5.85;;;2.70;;
68614;SDS011;55593;51.994;5.882;2022-07-23T09:19:46;5.68;;;2.60;;
68614;SDS011;55593;51.994;5.882;2022-07-23T09:22:19;4.53;;;2.35;;
68614;SDS011;55593;51.994;5.882;2022-07-23T09:25:04;5.80;;;2.65;;
68614;SDS011;55593;51.994;5.882;2022-07-23T09:30:14;7.25;;;2.95;;
68614;SDS011;55593;51.994;5.882;2022-07-23T09:32:49;7.13;;;3.00;;
68614;SDS011;55593;51.994;5.882;2022-07-23T09:35:45;4.88;;;2.50;;
68614;SDS011;55593;51.994;5.882;2022-07-23T09:38:16;5.25;;;2.60;;
68614;SDS011;55593;51.994;5.882;2022-07-23T09:40:45;7.78;;;2.90;;
68614;SDS011;55593;51.994;5.882;2022-07-23T09:43:25;5.47;;;2.67;;
68614;SDS011;55593;51.994;5.882;2022-07-23T09:46:00;6.88;;;2.97;;
68614;SDS011;55593;51.994;5.882;2022-07-23T09:48:48;7.13;;;2.30;;
68614;SDS011;55593;51.994;5.882;2022-07-23T09:51:18;7.30;;;3.45;;
68614;SDS011;55593;51.994;5.882;2022-07-23T09:53:53;7.22;;;2.80;;
68614;SDS011;55593;51.994;5.882;2022-07-23T09:56:22;4.80;;;2.70;;
68614;SDS011;55593;51.994;5.882;2022-07-23T09:58:51;4.18;;;2.40;;
68614;SDS011;55593;51.994;5.882;2022-07-23T10:01:28;8.27;;;3.30;;
68614;SDS011;55593;51.994;5.882;2022-07-23T10:04:00;4.85;;;2.80;;
68614;SDS011;55593;51.994;5.882;2022-07-23T10:06:51;7.28;;;3.00;;
68614;SDS011;55593;51.994;5.882;2022-07-23T10:09:40;6.03;;;2.60;;
68614;SDS011;55593;51.994;5.882;2022-07-23T10:12:26;5.43;;;3.33;;
68614;SDS011;55593;51.994;5.882;2022-07-23T10:15:20;7.47;;;3.08;;
68614;SDS011;55593;51.994;5.882;2022-07-23T10:17:50;5.90;;;3.35;;
68614;SDS011;55593;51.994;5.882;2022-07-23T10:20:22;6.47;;;3.60;;
68614;SDS011;55593;51.994;5.882;2022-07-23T10:22:54;8.20;;;3.22;;
68614;SDS011;55593;51.994;5.882;2022-07-23T10:25:29;5.85;;;3.30;;
68614;SDS011;55593;51.994;5.882;2022-07-23T10:28:08;8.57;;;3.30;;
68614;SDS011;55593;51.994;5.882;2022-07-23T10:30:50;5.60;;;3.45;;
68614;SDS011;55593;51.994;5.882;2022-07-23T10:33:27;6.28;;;3.05;;
68614;SDS011;55593;51.994;5.882;2022-07-23T10:36:06;7.72;;;2.70;;
68614;SDS011;55593;51.994;5.882;2022-07-23T10:38:41;4.10;;;2.60;;
68614;SDS011;55593;51.994;5.882;2022-07-23T10:41:19;5.47;;;2.97;;
68614;SDS011;55593;51.994;5.882;2022-07-23T10:44:07;9.48;;;2.60;;
68614;SDS011;55593;51.994;5.882;2022-07-23T10:49:25;6.13;;;3.30;;
68614;SDS011;55593;51.994;5.882;2022-07-23T10:58:01;7.55;;;3.05;;
68614;SDS011;55593;51.994;5.882;2022-07-23T11:00:31;5.72;;;2.83;;
68614;SDS011;55593;51.994;5.882;2022-07-23T11:03:02;11.20;;;3.60;;
68614;SDS011;55593;51.994;5.882;2022-07-23T11:05:40;5.85;;;2.90;;
68614;SDS011;55593;51.994;5.882;2022-07-23T11:08:17;5.07;;;2.30;;
68614;SDS011;55593;51.994;5.882;2022-07-23T11:10:49;7.30;;;2.72;;
68614;SDS011;55593;51.994;5.882;2022-07-23T11:13:33;8.00;;;2.38;;
68614;SDS011;55593;51.994;5.882;2022-07-23T11:16:11;6.70;;;2.33;;
68614;SDS011;55593;51.994;5.882;2022-07-23T11:18:55;4.25;;;2.47;;
68614;SDS011;55593;51.994;5.882;2022-07-23T11:21:50;7.70;;;2.97;;
68614;SDS011;55593;51.994;5.882;2022-07-23T11:24:23;5.57;;;3.03;;
68614;SDS011;55593;51.994;5.882;2022-07-23T11:26:56;7.95;;;2.67;;
68614;SDS011;55593;51.994;5.882;2022-07-23T11:35:00;4.63;;;2.47;;
68614;SDS011;55593;51.994;5.882;2022-07-23T11:37:33;4.70;;;2.80;;
68614;SDS011;55593;51.994;5.882;2022-07-23T11:40:06;5.72;;;2.47;;
68614;SDS011;55593;51.994;5.882;2022-07-23T11:42:37;4.38;;;2.50;;
68614;SDS011;55593;51.994;5.882;2022-07-23T11:45:10;4.20;;;2.45;;
68614;SDS011;55593;51.994;5.882;2022-07-23T11:47:39;5.45;;;2.45;;
68614;SDS011;55593;51.994;5.882;2022-07-23T11:50:08;6.78;;;2.72;;
68614;SDS011;55593;51.994;5.882;2022-07-23T11:52:38;7.28;;;2.80;;
68614;SDS011;55593;51.994;5.882;2022-07-23T11:55:08;8.43;;;3.22;;
68614;SDS011;55593;51.994;5.882;2022-07-23T11:57:42;4.60;;;2.97;;
68614;SDS011;55593;51.994;5.882;2022-07-23T12:00:15;6.38;;;3.03;;
68614;SDS011;55593;51.994;5.882;2022-07-23T12:02:47;8.05;;;3.00;;
68614;SDS011;55593;51.994;5.882;2022-07-23T12:05:17;7.55;;;3.17;;
68614;SDS011;55593;51.994;5.882;2022-07-23T12:07:48;5.90;;;3.30;;
68614;SDS011;55593;51.994;5.882;2022-07-23T12:10:19;5.53;;;2.80;;
68614;SDS011;55593;51.994;5.882;2022-07-23T12:12:49;5.05;;;2.72;;
68614;SDS011;55593;51.994;5.882;2022-07-23T12:15:22;6.18;;;2.63;;
68614;SDS011;55593;51.994;5.882;2022-07-23T12:17:53;7.95;;;2.67;;
68614;SDS011;55593;51.994;5.882;2022-07-23T12:20:23;5.65;;;2.60;;
68614;SDS011;55593;51.994;5.882;2022-07-23T12:22:55;7.32;;;2.63;;
68614;SDS011;55593;51.994;5.882;2022-07-23T12:25:27;5.82;;;2.58;;
68614;SDS011;55593;51.994;5.882;2022-07-23T12:27:58;7.15;;;2.75;;
68614;SDS011;55593;51.994;5.882;2022-07-23T12:30:33;6.40;;;2.67;;
68614;SDS011;55593;51.994;5.882;2022-07-23T12:33:03;6.13;;;3.30;;
68614;SDS011;55593;51.994;5.882;2022-07-23T12:35:34;6.65;;;2.75;;
68614;SDS011;55593;51.994;5.882;2022-07-23T12:38:07;5.05;;;2.38;;
68614;SDS011;55593;51.994;5.882;2022-07-23T12:40:41;4.20;;;2.75;;
68614;SDS011;55593;51.994;5.882;2022-07-23T12:43:18;5.75;;;2.80;;
68614;SDS011;55593;51.994;5.882;2022-07-23T12:45:51;5.25;;;2.55;;
68614;SDS011;55593;51.994;5.882;2022-07-23T12:48:23;6.00;;;2.47;;
68614;SDS011;55593;51.994;5.882;2022-07-23T12:50:54;6.35;;;2.53;;
68614;SDS011;55593;51.994;5.882;2022-07-23T12:53:25;4.53;;;2.45;;
68614;SDS011;55593;51.994;5.882;2022-07-23T12:55:57;4.38;;;2.35;;
68614;SDS011;55593;51.994;5.882;2022-07-23T12:58:39;7.22;;;2.90;;
68614;SDS011;55593;51.994;5.882;2022-07-23T13:01:13;7.88;;;2.83;;
68614;SDS011;55593;51.994;5.882;2022-07-23T13:03:55;6.75;;;2.78;;
68614;SDS011;55593;51.994;5.882;2022-07-23T13:06:25;7.38;;;2.75;;
68614;SDS011;55593;51.994;5.882;2022-07-23T13:08:55;6.30;;;3.00;;
68614;SDS011;55593;51.994;5.882;2022-07-23T13:11:24;4.22;;;2.65;;
68614;SDS011;55593;51.994;5.882;2022-07-23T13:13:53;5.32;;;2.60;;
68614;SDS011;55593;51.994;5.882;2022-07-23T13:16:25;3.97;;;2.45;;
68614;SDS011;55593;51.994;5.882;2022-07-23T13:18:54;5.53;;;2.63;;
68614;SDS011;55593;51.994;5.882;2022-07-23T13:21:24;3.70;;;2.03;;
68614;SDS011;55593;51.994;5.882;2022-07-23T13:23:54;9.82;;;2.65;;
68614;SDS011;55593;51.994;5.882;2022-07-23T13:26:23;7.20;;;2.55;;
68614;SDS011;55593;51.994;5.882;2022-07-23T13:28:53;5.35;;;3.17;;
68614;SDS011;55593;51.994;5.882;2022-07-23T13:31:25;5.57;;;2.67;;
68614;SDS011;55593;51.994;5.882;2022-07-23T13:33:54;5.47;;;2.70;;
68614;SDS011;55593;51.994;5.882;2022-07-23T13:36:23;4.68;;;2.70;;
68614;SDS011;55593;51.994;5.882;2022-07-23T13:38:52;6.95;;;2.58;;
68614;SDS011;55593;51.994;5.882;2022-07-23T13:41:21;3.10;;;2.08;;
68614;SDS011;55593;51.994;5.882;2022-07-23T13:43:50;4.32;;;2.50;;
68614;SDS011;55593;51.994;5.882;2022-07-23T13:46:19;6.60;;;2.42;;
68614;SDS011;55593;51.994;5.882;2022-07-23T13:48:51;6.78;;;2.50;;
68614;SDS011;55593;51.994;5.882;2022-07-23T13:51:20;4.85;;;2.53;;
68614;SDS011;55593;51.994;5.882;2022-07-23T13:53:50;11.82;;;2.90;;
68614;SDS011;55593;51.994;5.882;2022-07-23T13:56:19;6.28;;;2.38;;
68614;SDS011;55593;51.994;5.882;2022-07-23T13:58:48;5.30;;;2.30;;
68614;SDS011;55593;51.994;5.882;2022-07-23T14:01:17;5.80;;;2.78;;
68614;SDS011;55593;51.994;5.882;2022-07-23T14:03:46;4.90;;;2.55;;
68614;SDS011;55593;51.994;5.882;2022-07-23T14:06:17;5.82;;;2.80;;
68614;SDS011;55593;51.994;5.882;2022-07-23T14:08:47;9.75;;;3.15;;
68614;SDS011;55593;51.994;5.882;2022-07-23T14:11:16;3.83;;;2.50;;
68614;SDS011;55593;51.994;5.882;2022-07-23T14:13:45;6.90;;;2.72;;
68614;SDS011;55593;51.994;5.882;2022-07-23T14:16:14;4.53;;;2.50;;
68614;SDS011;55593;51.994;5.882;2022-07-23T14:18:43;14.20;;;2.88;;
68614;SDS011;55593;51.994;5.882;2022-07-23T14:21:12;10.63;;;3.13;;
68614;SDS011;55593;51.994;5.882;2022-07-23T14:23:44;8.00;;;3.28;;
68614;SDS011;55593;51.994;5.882;2022-07-23T14:26:13;5.38;;;2.33;;
68614;SDS011;55593;51.994;5.882;2022-07-23T14:28:42;9.25;;;2.70;;
68614;SDS011;55593;51.994;5.882;2022-07-23T14:31:11;6.60;;;2.85;;
68614;SDS011;55593;51.994;5.882;2022-07-23T14:33:40;5.30;;;2.78;;
68614;SDS011;55593;51.994;5.882;2022-07-23T14:36:09;5.22;;;2.40;;
68614;SDS011;55593;51.994;5.882;2022-07-23T14:38:39;4.90;;;3.33;;
68614;SDS011;55593;51.994;5.882;2022-07-23T14:41:10;5.90;;;2.97;;
68614;SDS011;55593;51.994;5.882;2022-07-23T14:43:39;6.22;;;2.60;;
68614;SDS011;55593;51.994;5.882;2022-07-23T14:46:09;6.93;;;4.18;;
68614;SDS011;55593;51.994;5.882;2022-07-23T14:48:38;5.85;;;3.30;;
68614;SDS011;55593;51.994;5.882;2022-07-23T14:51:07;4.45;;;2.60;;
68614;SDS011;55593;51.994;5.882;2022-07-23T14:53:36;6.22;;;2.83;;
68614;SDS011;55593;51.994;5.882;2022-07-23T14:56:06;5.85;;;2.70;;
68614;SDS011;55593;51.994;5.882;2022-07-23T14:58:37;6.57;;;2.63;;
68614;SDS011;55593;51.994;5.882;2022-07-23T15:01:06;6.80;;;2.83;;
68614;SDS011;55593;51.994;5.882;2022-07-23T15:03:36;5.85;;;3.30;;
68614;SDS011;55593;51.994;5.882;2022-07-23T15:06:05;5.45;;;2.80;;
68614;SDS011;55593;51.994;5.882;2022-07-23T15:08:34;6.30;;;3.13;;
68614;SDS011;55593;51.994;5.882;2022-07-23T15:11:03;7.45;;;2.75;;
68614;SDS011;55593;51.994;5.882;2022-07-23T15:13:34;5.70;;;2.78;;
68614;SDS011;55593;51.994;5.882;2022-07-23T15:16:07;5.80;;;3.05;;
68614;SDS011;55593;51.994;5.882;2022-07-23T15:18:36;5.60;;;2.95;;
68614;SDS011;55593;51.994;5.882;2022-07-23T15:21:06;4.57;;;2.60;;
68614;SDS011;55593;51.994;5.882;2022-07-23T15:23:35;5.80;;;3.10;;
68614;SDS011;55593;51.994;5.882;2022-07-23T15:26:05;5.00;;;3.00;;